createdAt,value
2023-02-04T00:00:35.102Z,100.00
2023-02-04T00:05:26.099Z,100.00
2023-02-04T00:10:20.367Z,100.00
2023-02-04T00:15:13.889Z,100.00
2023-02-04T00:20:11.644Z,100.00
2023-02-04T00:25:02.526Z,100.00
2023-02-04T00:29:55.844Z,100.00
2023-02-04T00:34:50.562Z,100.00
2023-02-04T00:39:44.856Z,100.00
2023-02-04T00:44:37.519Z,100.00
2023-02-04T00:49:29.999Z,100.00
2023-02-04T00:54:20.084Z,100.00
2023-02-04T00:59:13.102Z,100.00
2023-02-04T01:04:07.748Z,100.00
2023-02-04T01:08:58.512Z,100.00
2023-02-04T01:13:53.456Z,100.00
2023-02-04T01:18:50.148Z,100.00
2023-02-04T01:23:42.508Z,100.00
2023-02-04T01:28:34.506Z,100.00
2023-02-04T01:33:26.428Z,100.00
2023-02-04T01:38:22.316Z,100.00
2023-02-04T01:43:13.974Z,100.00
2023-02-04T01:48:06.199Z,100.00
2023-02-04T01:53:02.945Z,100.00
2023-02-04T01:57:59.193Z,100.00
2023-02-04T02:02:53.817Z,100.00
2023-02-04T02:07:49.027Z,100.00
2023-02-04T02:12:42.201Z,100.00
2023-02-04T02:17:36.770Z,100.00
2023-02-04T02:22:32.790Z,100.00
2023-02-04T02:27:27.329Z,100.00
2023-02-04T02:32:22.882Z,100.00
2023-02-04T02:37:18.333Z,100.00
2023-02-04T02:42:08.276Z,100.00
2023-02-04T02:47:03.018Z,100.00
2023-02-04T02:51:56.128Z,100.00
2023-02-04T02:56:48.354Z,100.00
2023-02-04T03:01:40.021Z,100.00
2023-02-04T03:06:34.980Z,100.00
2023-02-04T03:11:28.253Z,100.00
2023-02-04T03:16:20.025Z,100.00
2023-02-04T03:21:14.864Z,100.00
2023-02-04T03:26:11.278Z,100.00
2023-02-04T03:31:03.635Z,100.00
2023-02-04T03:35:54.312Z,100.00
2023-02-04T03:40:44.333Z,100.00
2023-02-04T03:45:45.005Z,100.00
2023-02-04T03:50:37.264Z,100.00
2023-02-04T03:55:30.368Z,100.00
2023-02-04T04:00:21.997Z,100.00
2023-02-04T04:05:15.815Z,100.00
2023-02-04T04:10:07.700Z,100.00
2023-02-04T04:15:00.340Z,100.00
2023-02-04T04:19:51.563Z,100.00
2023-02-04T04:24:45.915Z,100.00
2023-02-04T04:29:39.102Z,100.00
2023-02-04T04:34:29.818Z,100.00
2023-02-04T04:39:20.181Z,100.00
2023-02-04T04:44:12.688Z,100.00
2023-02-04T04:49:02.973Z,100.00
2023-02-04T04:53:54.563Z,100.00
2023-02-04T04:58:45.423Z,100.00
2023-02-04T05:03:41.241Z,100.00
2023-02-04T05:08:34.461Z,100.00
2023-02-04T05:13:26.325Z,100.00
2023-02-04T05:18:18.477Z,100.00
2023-02-04T05:23:14.837Z,100.00
2023-02-04T05:28:05.833Z,100.00
2023-02-04T05:33:00.534Z,100.00
2023-02-04T05:37:52.035Z,100.00
2023-02-04T05:42:46.854Z,100.00
2023-02-04T05:47:36.820Z,100.00
2023-02-04T05:52:29.597Z,100.00
2023-02-04T05:57:19.383Z,100.00
2023-02-04T06:02:12.720Z,100.00
2023-02-04T06:07:04.074Z,100.00
2023-02-04T06:11:58.039Z,100.00
2023-02-04T06:16:50.036Z,100.00
2023-02-04T06:21:43.099Z,100.00
2023-02-04T06:26:38.941Z,100.00
2023-02-04T06:31:33.283Z,100.00
2023-02-04T06:36:25.227Z,100.00
2023-02-04T06:41:20.405Z,100.00
2023-02-04T06:46:11.368Z,100.00
2023-02-04T06:51:01.880Z,100.00
2023-02-04T06:55:52.858Z,100.00
2023-02-04T07:00:45.748Z,100.00
2023-02-04T07:05:37.802Z,100.00
2023-02-04T07:10:33.730Z,100.00
2023-02-04T07:15:31.454Z,100.00
2023-02-04T07:20:27.551Z,100.00
2023-02-04T07:25:22.520Z,100.00
2023-02-04T07:30:15.601Z,100.00
2023-02-04T07:35:09.542Z,100.00
2023-02-04T07:40:03.057Z,100.00
2023-02-04T07:44:53.480Z,100.00
2023-02-04T07:49:43.565Z,100.00
2023-02-04T07:54:35.013Z,100.00
2023-02-04T07:59:31.565Z,100.00
2023-02-04T08:04:23.634Z,100.00
2023-02-04T08:09:15.531Z,100.00
2023-02-04T08:14:12.074Z,100.00
2023-02-04T08:19:07.420Z,100.00
2023-02-04T08:24:01.111Z,100.00
2023-02-04T08:28:53.341Z,100.00
2023-02-04T08:33:47.940Z,100.00
2023-02-04T08:38:41.697Z,100.00
2023-02-04T08:43:31.842Z,100.00
2023-02-04T08:48:22.603Z,100.00
2023-02-04T08:53:13.199Z,100.00
2023-02-04T08:58:06.433Z,100.00
2023-02-04T09:02:57.544Z,100.00
2023-02-04T09:07:53.000Z,100.00
2023-02-04T09:12:44.354Z,100.00
2023-02-04T09:17:39.928Z,100.00
2023-02-04T09:22:31.914Z,100.00
2023-02-04T09:27:23.253Z,100.00
2023-02-04T09:32:14.290Z,100.00
2023-02-04T09:37:09.240Z,100.00
2023-02-04T09:42:02.999Z,100.00
2023-02-04T09:46:55.670Z,100.00
2023-02-04T09:51:49.507Z,100.00
2023-02-04T09:56:43.137Z,100.00
2023-02-04T10:01:40.085Z,100.00
2023-02-04T10:06:33.108Z,100.00
2023-02-04T10:11:28.068Z,100.00
2023-02-04T10:16:30.346Z,100.00
2023-02-04T10:21:25.115Z,100.00
2023-02-04T10:26:18.020Z,100.00
2023-02-04T10:31:11.224Z,100.00
2023-02-04T10:36:07.818Z,100.00
2023-02-04T10:41:06.179Z,100.00
2023-02-04T10:46:05.095Z,100.00
2023-02-04T10:51:00.549Z,100.00
2023-02-04T10:55:54.301Z,98.34
2023-02-04T11:00:48.593Z,98.67
2023-02-04T11:05:42.734Z,99.61
2023-02-04T11:10:36.068Z,99.78
2023-02-04T11:16:14.131Z,97.89
2023-02-04T11:21:06.350Z,97.76
2023-02-04T11:26:08.284Z,97.60
2023-02-04T11:31:17.840Z,96.79
2023-02-04T11:36:17.933Z,95.54
2023-02-04T11:41:19.391Z,94.07
2023-02-04T11:46:18.943Z,94.58
2023-02-04T11:51:19.411Z,95.45
2023-02-04T11:56:09.505Z,96.32
2023-02-04T12:00:59.640Z,95.75
2023-02-04T12:05:56.382Z,97.07
2023-02-04T12:10:57.627Z,97.42
2023-02-04T12:16:07.739Z,98.23
2023-02-04T12:21:05.182Z,99.35
2023-02-04T12:25:57.747Z,99.37
2023-02-04T12:30:48.249Z,98.83
2023-02-04T12:35:39.054Z,98.41
2023-02-04T12:40:31.696Z,99.57
2023-02-04T12:45:22.981Z,100.00
2023-02-04T12:50:15.509Z,100.00
2023-02-04T12:55:11.480Z,100.00
2023-02-04T13:00:11.564Z,100.00
2023-02-04T13:05:10.234Z,100.00
2023-02-04T13:10:03.031Z,100.00
2023-02-04T13:14:54.424Z,99.65
2023-02-04T13:19:47.830Z,99.62
2023-02-04T13:24:38.088Z,100.00
2023-02-04T13:29:28.640Z,99.78
2023-02-04T13:34:20.007Z,99.87
2023-02-04T13:39:15.256Z,100.00
2023-02-04T13:44:07.510Z,100.00
2023-02-04T13:48:59.046Z,100.00
2023-02-04T13:53:53.914Z,99.20
2023-02-04T13:58:48.272Z,98.43
2023-02-04T14:03:43.811Z,97.61
2023-02-04T14:08:39.413Z,96.77
2023-02-04T14:13:38.934Z,96.73
2023-02-04T14:18:31.907Z,96.94
2023-02-04T14:23:25.132Z,96.21
2023-02-04T14:28:21.431Z,95.74
2023-02-04T14:33:14.106Z,96.46
2023-02-04T14:38:12.884Z,95.91
2023-02-04T14:43:07.494Z,94.01
2023-02-04T14:48:03.033Z,93.85
2023-02-04T14:52:55.793Z,93.38
2023-02-04T14:57:50.505Z,93.45
2023-02-04T15:02:45.049Z,92.80
2023-02-04T15:07:35.805Z,93.38
2023-02-04T15:12:29.297Z,94.18
2023-02-04T15:17:30.321Z,95.23
2023-02-04T15:22:24.451Z,96.72
2023-02-04T15:27:15.652Z,97.32
2023-02-04T15:32:16.273Z,98.27
2023-02-04T15:37:11.559Z,97.79
2023-02-04T15:42:06.198Z,98.77
2023-02-04T15:46:59.417Z,99.37
2023-02-04T15:51:52.420Z,98.83
2023-02-04T15:56:45.136Z,99.01
2023-02-04T16:01:42.974Z,98.75
2023-02-04T16:06:37.167Z,98.90
2023-02-04T16:11:29.206Z,98.92
2023-02-04T16:16:24.261Z,98.73
2023-02-04T16:21:16.296Z,99.31
2023-02-04T16:26:09.591Z,99.07
2023-02-04T16:31:00.911Z,99.68
2023-02-04T16:36:05.305Z,99.59
2023-02-04T16:40:55.603Z,99.63
2023-02-04T16:45:49.516Z,100.00
2023-02-04T16:50:41.590Z,100.00
2023-02-04T16:55:36.063Z,100.00
2023-02-04T17:00:28.242Z,100.00
2023-02-04T17:05:20.057Z,100.00
2023-02-04T17:10:15.722Z,100.00
2023-02-04T17:15:14.800Z,100.00
2023-02-04T17:20:06.080Z,100.00
2023-02-04T17:24:56.663Z,100.00
2023-02-04T17:29:46.787Z,100.00
2023-02-04T17:34:39.680Z,100.00
2023-02-04T17:39:30.671Z,100.00
2023-02-04T17:44:25.299Z,100.00
2023-02-04T17:49:17.840Z,100.00
2023-02-04T17:54:13.955Z,100.00
2023-02-04T17:59:05.426Z,100.00
2023-02-04T18:03:59.503Z,100.00
2023-02-04T18:08:53.119Z,100.00
2023-02-04T18:13:47.490Z,100.00
2023-02-04T18:18:40.566Z,100.00
2023-02-04T18:23:33.724Z,100.00
2023-02-04T18:28:24.883Z,100.00
2023-02-04T18:33:23.920Z,100.00
2023-02-04T18:38:39.899Z,100.00
2023-02-04T18:43:32.205Z,100.00
2023-02-04T18:48:59.398Z,100.00
2023-02-04T18:53:53.465Z,100.00
2023-02-04T18:58:50.933Z,100.00
2023-02-04T19:03:50.397Z,100.00
2023-02-04T19:08:48.273Z,100.00
2023-02-04T19:14:31.733Z,100.00
2023-02-04T19:19:57.699Z,100.00
2023-02-04T19:24:54.702Z,100.00
2023-02-04T19:30:01.280Z,100.00
2023-02-04T19:34:55.005Z,100.00
2023-02-04T19:39:46.489Z,100.00
2023-02-04T19:44:49.570Z,100.00
2023-02-04T19:49:43.458Z,100.00
2023-02-04T19:54:43.680Z,100.00
2023-02-04T19:59:39.885Z,100.00
2023-02-04T20:04:40.104Z,100.00
2023-02-04T20:09:37.402Z,100.00
2023-02-04T20:14:32.569Z,100.00
2023-02-04T20:19:27.519Z,100.00
2023-02-04T20:24:20.574Z,100.00
2023-02-04T20:29:27.116Z,100.00
2023-02-04T20:34:28.322Z,100.00
2023-02-04T20:39:40.502Z,100.00
2023-02-04T20:44:47.175Z,100.00
2023-02-04T20:49:46.492Z,100.00
2023-02-04T20:54:36.750Z,100.00
2023-02-04T20:59:36.662Z,100.00
2023-02-04T21:04:33.588Z,100.00
2023-02-04T21:09:27.092Z,100.00
2023-02-04T21:14:18.177Z,100.00
2023-02-04T21:19:12.150Z,100.00
2023-02-04T21:24:04.568Z,100.00
2023-02-04T21:28:59.907Z,100.00
2023-02-04T21:33:53.982Z,100.00
2023-02-04T21:38:49.832Z,100.00
2023-02-04T21:43:58.293Z,100.00
2023-02-04T21:48:51.049Z,100.00
2023-02-04T21:53:43.950Z,100.00
2023-02-04T21:58:38.822Z,100.00
2023-02-04T22:03:30.162Z,100.00
2023-02-04T22:08:21.744Z,100.00
2023-02-04T22:13:15.740Z,100.00
2023-02-04T22:18:13.624Z,100.00
2023-02-04T22:23:06.242Z,100.00
2023-02-04T22:27:57.626Z,100.00
2023-02-04T22:32:51.751Z,100.00
2023-02-04T22:37:46.098Z,100.00
2023-02-04T22:42:37.375Z,100.00
2023-02-04T22:47:28.877Z,100.00
2023-02-04T22:52:25.146Z,100.00
2023-02-04T22:57:21.368Z,100.00
2023-02-04T23:02:15.322Z,100.00
2023-02-04T23:07:08.855Z,100.00
2023-02-04T23:12:13.072Z,100.00
2023-02-04T23:17:06.850Z,100.00
2023-02-04T23:21:58.367Z,100.00
2023-02-04T23:26:49.705Z,100.00
2023-02-04T23:31:40.596Z,100.00
2023-02-04T23:36:39.756Z,100.00
2023-02-04T23:41:30.845Z,100.00
2023-02-04T23:46:24.802Z,100.00
2023-02-04T23:51:16.416Z,100.00
2023-02-04T23:56:10.929Z,100.00
